Time;durP1;ratioP1;P1;durP2;ratioP2;P2;SDS_P1;SDS_P2;PMS_P1;PMS_P2;Temp;Humidity;BMP_temperature;BMP_pressure;BME280_temperature;BME280_humidity;BME280_pressure;Samples;Min_cycle;Max_cycle;Signal;HPM_P1;HPM_P2
2022/05/10 00:01:40;;;;;;;11.63;8.17;;;11.60;99.90;;;;;;21096627;28;20107;-79
2022/05/10 00:11:41;;;;;;;11.20;8.03;;;11.70;99.90;;;;;;21109768;28;20624;-79
2022/05/10 00:21:43;;;;;;;11.40;8.10;;;11.50;99.90;;;;;;21108654;28;20036;-79
2022/05/10 00:31:43;;;;;;;;;;;11.50;99.90;;;;;;21111683;28;20525;-79
2022/05/10 00:41:44;;;;;;;15.68;9.13;;;11.40;99.90;;;;;;21108020;28;19912;-78
2022/05/10 00:52:23;;;;;;;12.10;8.63;;;11.10;99.90;;;;;;21105537;28;20115;-79
2022/05/10 01:02:37;;;;;;;12.80;8.77;;;11.20;99.90;;;;;;21032721;28;20044;-79
2022/05/10 01:12:50;;;;;;;19.90;9.15;;;11.10;99.90;;;;;;21112740;28;20094;-79
2022/05/10 01:22:59;;;;;;;10.57;7.57;;;10.90;99.90;;;;;;21106883;28;20163;-79
2022/05/10 01:43:32;;;;;;;13.27;7.72;;;11.00;99.90;;;;;;21106676;28;20039;-79
2022/05/10 01:53:36;;;;;;;12.07;8.35;;;10.90;99.90;;;;;;21104114;28;20038;-79
2022/05/10 02:03:51;;;;;;;12.70;7.93;;;10.90;99.90;;;;;;21107113;28;20044;-78
2022/05/10 02:14:22;;;;;;;17.13;11.00;;;10.80;99.90;;;;;;21077954;28;20051;-79
2022/05/10 02:24:37;;;;;;;20.05;9.48;;;10.90;99.90;;;;;;21082731;28;20047;-78
2022/05/10 02:34:42;;;;;;;13.95;8.88;;;11.00;99.90;;;;;;21081917;28;20122;-79
2022/05/10 02:44:43;;;;;;;13.02;8.77;;;11.20;99.90;;;;;;21110488;28;20032;-79
2022/05/10 02:54:44;;;;;;;12.23;8.23;;;11.10;99.90;;;;;;21098663;28;20028;-79
2022/05/10 03:04:51;;;;;;;12.07;8.43;;;10.90;99.90;;;;;;21052217;28;20498;-78
2022/05/10 03:14:55;;;;;;;15.43;8.85;;;10.80;99.90;;;;;;21022902;28;20055;-79
2022/05/10 03:24:56;;;;;;;16.00;10.52;;;10.60;99.90;;;;;;21014149;28;20044;-79
2022/05/10 03:34:59;;;;;;;13.80;8.95;;;10.60;99.90;;;;;;21090760;28;20391;-77
2022/05/10 03:45:00;;;;;;;14.60;9.40;;;10.90;99.90;;;;;;21086704;28;20078;-76
2022/05/10 03:55:03;;;;;;;12.33;8.93;;;11.30;99.90;;;;;;21085418;28;20024;-77
2022/05/10 04:05:05;;;;;;;14.73;9.13;;;11.70;99.90;;;;;;21086653;28;20028;-76
2022/05/10 04:15:10;;;;;;;16.10;11.82;;;11.40;99.90;;;;;;21087514;28;20502;-76
2022/05/10 04:25:11;;;;;;;15.73;10.73;;;11.10;99.90;;;;;;21090034;28;20035;-76
2022/05/10 04:35:12;;;;;;;13.88;9.73;;;10.80;99.90;;;;;;21084261;28;20059;-76
2022/05/10 04:45:15;;;;;;;17.67;10.77;;;11.10;99.90;;;;;;21081795;28;20038;-76
2022/05/10 04:55:15;;;;;;;17.80;10.63;;;11.20;99.90;;;;;;21082578;28;20086;-76
2022/05/10 05:05:16;;;;;;;22.03;11.43;;;11.50;99.90;;;;;;21102418;28;20028;-78
2022/05/10 05:15:18;;;;;;;15.57;10.27;;;11.70;99.90;;;;;;21085397;28;20092;-79
2022/05/10 05:25:18;;;;;;;17.00;11.70;;;12.00;99.90;;;;;;21101110;28;20024;-78
2022/05/10 05:35:19;;;;;;;24.27;12.77;;;12.30;99.90;;;;;;21083988;28;20032;-79
2022/05/10 05:45:23;;;;;;;15.10;10.67;;;12.50;99.90;;;;;;21102123;28;20043;-81
2022/05/10 05:55:24;;;;;;;16.27;11.05;;;12.80;99.90;;;;;;21091372;28;20085;-82
2022/05/10 06:05:27;;;;;;;16.87;11.20;;;13.30;99.90;;;;;;21095334;28;20020;-80
2022/05/10 06:15:29;;;;;;;19.27;10.57;;;13.70;99.90;;;;;;21096210;28;20070;-81
2022/05/10 06:25:32;;;;;;;14.23;10.48;;;14.10;99.90;;;;;;21092882;28;20114;-80
2022/05/10 06:35:32;;;;;;;;;;;14.00;99.90;;;;;;21089681;28;20032;-80
2022/05/10 06:45:33;;;;;;;14.18;9.10;;;14.70;99.90;;;;;;21095408;28;19978;-80
2022/05/10 06:55:36;;;;;;;13.87;9.90;;;15.70;99.90;;;;;;21104985;28;20030;-80
2022/05/10 07:05:39;;;;;;;14.00;10.23;;;16.30;99.90;;;;;;21084334;28;20032;-79
2022/05/10 07:15:40;;;;;;;16.33;10.75;;;16.40;99.90;;;;;;21079003;28;20082;-80
2022/05/10 07:25:41;;;;;;;15.13;9.93;;;15.80;99.90;;;;;;21095460;28;20095;-80
2022/05/10 07:46:01;;;;;;;16.95;10.88;;;17.60;99.90;;;;;;21106671;28;20095;-81
2022/05/10 07:56:03;;;;;;;12.57;9.00;;;18.50;99.90;;;;;;21096801;28;20036;-80
2022/05/10 08:06:04;;;;;;;13.75;10.43;;;18.50;99.90;;;;;;21095742;28;20028;-80
2022/05/10 08:16:08;;;;;;;14.53;9.27;;;19.00;99.90;;;;;;21080483;28;20131;-78
2022/05/10 08:26:09;;;;;;;10.10;8.02;;;19.10;99.90;;;;;;21093689;28;20067;-78
2022/05/10 08:36:11;;;;;;;11.17;7.87;;;20.80;99.90;;;;;;21080356;28;20032;-78
2022/05/10 08:46:16;;;;;;;15.35;7.78;;;21.70;99.90;;;;;;21082909;28;20028;-79
2022/05/10 08:56:27;;;;;;;18.23;8.85;;;22.50;99.90;;;;;;21077968;28;20371;-80
2022/05/10 09:06:35;;;;;;;;;;;23.30;99.90;;;;;;21076414;28;20127;-78
2022/05/10 09:16:36;;;;;;;8.90;5.95;;;23.90;99.90;;;;;;21082112;28;19923;-78
2022/05/10 09:26:38;;;;;;;;;;;24.70;99.90;;;;;;21076172;28;20165;-78
2022/05/10 09:36:46;;;;;;;12.60;6.47;;;24.10;99.90;;;;;;20980713;28;20399;-77
2022/05/10 09:46:47;;;;;;;8.10;5.93;;;23.80;99.90;;;;;;20980369;28;20071;-78
2022/05/10 09:56:56;;;;;;;8.93;5.88;;;23.80;99.90;;;;;;20982811;28;20270;-78
2022/05/10 10:07:08;;;;;;;7.47;5.25;;;24.90;99.90;;;;;;20978295;28;20040;-77
2022/05/10 10:17:36;;;;;;;6.10;5.50;;;25.70;99.90;;;;;;20979007;28;20178;-77
2022/05/10 10:28:16;;;;;;;11.82;5.75;;;25.60;99.90;;;;;;20980940;28;20036;-78
2022/05/10 10:38:54;;;;;;;6.28;5.15;;;25.00;99.90;;;;;;20978955;28;20044;-78
2022/05/10 10:49:00;;;;;;;4.63;4.15;;;25.20;99.90;;;;;;20928124;28;20036;-78
2022/05/10 10:59:07;;;;;;;5.63;3.50;;;26.20;99.90;;;;;;20922899;28;20017;-77
2022/05/10 11:09:16;;;;;;;2.80;2.40;;;26.90;99.90;;;;;;20919801;28;20426;-77
2022/05/10 11:19:42;;;;;;;3.95;3.20;;;25.60;99.90;;;;;;20923997;28;20483;-78
2022/05/10 11:29:52;;;;;;;5.45;3.40;;;26.60;99.90;;;;;;20918437;28;20059;-77
2022/05/10 11:40:13;;;;;;;5.90;3.08;;;26.70;99.90;;;;;;20925852;28;20032;-77
2022/05/10 11:50:34;;;;;;;5.78;2.63;;;25.80;99.90;;;;;;20922906;28;20036;-77
2022/05/10 12:00:34;;;;;;;3.35;2.60;;;26.50;99.90;;;;;;20919964;28;20596;-77
2022/05/10 12:10:42;;;;;;;3.07;2.50;;;27.00;99.90;;;;;;20917656;28;20037;-77
2022/05/10 12:21:19;;;;;;;3.75;2.60;;;26.70;99.90;;;;;;20889601;28;20808;-77
2022/05/10 12:31:30;;;;;;;3.17;2.53;;;26.40;99.90;;;;;;20888246;28;20081;-77
2022/05/10 12:41:56;;;;;;;3.58;2.35;;;25.80;99.90;;;;;;20901394;28;20033;-77
2022/05/10 12:52:39;;;;;;;3.15;2.17;;;26.00;99.90;;;;;;20924448;28;20063;-78
2022/05/10 13:02:55;;;;;;;5.93;2.28;;;26.20;99.90;;;;;;20913145;28;20037;-77
2022/05/10 13:13:03;;;;;;;3.50;2.30;;;26.60;99.90;;;;;;20911376;28;20032;-78
2022/05/10 13:23:05;;;;;;;3.25;2.53;;;26.00;99.90;;;;;;20911253;28;20040;-77
2022/05/10 13:33:06;;;;;;;3.15;2.53;;;25.90;99.90;;;;;;20852168;28;20076;-77
2022/05/10 13:43:19;;;;;;;2.50;2.30;;;25.70;99.90;;;;;;20828404;28;20033;-77
2022/05/10 13:53:28;;;;;;;5.32;2.70;;;25.90;99.90;;;;;;20830903;28;20075;-77
2022/05/10 14:03:29;;;;;;;2.58;2.25;;;26.10;99.90;;;;;;20827648;28;20087;-77
2022/05/10 14:13:33;;;;;;;2.55;2.25;;;25.80;99.90;;;;;;20830109;28;20063;-77
2022/05/10 14:23:34;;;;;;;14.48;3.63;;;25.80;99.90;;;;;;20853964;28;20040;-77
2022/05/10 14:33:41;;;;;;;4.18;2.78;;;26.40;99.90;;;;;;20907342;28;20463;-77
2022/05/10 14:43:42;;;;;;;3.97;2.03;;;26.00;99.90;;;;;;20905958;28;20060;-77
2022/05/10 14:53:53;;;;;;;5.88;2.72;;;25.50;99.90;;;;;;20897719;28;20052;-76
2022/05/10 15:04:03;;;;;;;4.53;2.53;;;25.60;99.90;;;;;;20896742;28;20024;-76
2022/05/10 15:14:04;;;;;;;3.33;2.40;;;25.40;99.90;;;;;;20872568;28;20937;-77
2022/05/10 15:24:06;;;;;;;3.13;2.67;;;25.90;99.90;;;;;;20880631;28;20061;-77
2022/05/10 15:34:43;;;;;;;7.22;3.00;;;25.60;99.90;;;;;;20904979;28;20068;-77
2022/05/10 15:44:29;;;;;;;6.13;2.70;;;25.70;99.90;;;;;;20875363;28;20120;-77
2022/05/10 15:54:30;;;;;;;6.78;2.88;;;25.90;99.90;;;;;;20903794;28;20064;-78
2022/05/10 16:04:31;;;;;;;5.72;2.90;;;25.70;99.90;;;;;;20904046;28;20117;-78
2022/05/10 16:14:35;;;;;;;5.15;2.83;;;25.80;99.90;;;;;;20902089;28;20376;-78
2022/05/10 16:24:36;;;;;;;4.90;3.25;;;25.50;99.90;;;;;;20896337;28;20083;-78
2022/05/10 16:34:38;;;;;;;5.28;2.83;;;25.60;99.90;;;;;;20895420;28;20578;-78
2022/05/10 16:44:40;;;;;;;3.92;2.97;;;25.50;99.90;;;;;;20844969;28;20100;-77
2022/05/10 16:54:45;;;;;;;5.53;2.65;;;24.90;99.90;;;;;;20897929;28;20064;-78
2022/05/10 17:04:48;;;;;;;6.07;3.22;;;24.40;99.90;;;;;;20893670;28;20385;-77
2022/05/10 17:14:49;;;;;;;3.28;2.72;;;24.30;99.90;;;;;;20837468;28;20457;-77
2022/05/10 17:24:50;;;;;;;;;;;24.10;99.90;;;;;;20873301;28;20152;-78
2022/05/10 17:34:51;;;;;;;5.03;3.00;;;24.20;99.90;;;;;;20813801;28;19917;-78
2022/05/10 17:44:56;;;;;;;8.50;2.83;;;23.90;99.90;;;;;;20814655;28;20088;-78
2022/05/10 17:54:57;;;;;;;6.78;3.60;;;23.20;99.90;;;;;;20860709;28;20036;-78
2022/05/10 18:04:59;;;;;;;7.73;3.37;;;22.60;99.90;;;;;;20831607;28;20060;-78
2022/05/10 18:15:00;;;;;;;6.60;3.95;;;21.80;99.90;;;;;;20880154;28;20033;-79
2022/05/10 18:25:00;;;;;;;9.10;4.40;;;21.30;99.90;;;;;;20908779;28;20076;-78
2022/05/10 18:35:02;;;;;;;8.20;3.80;;;21.10;99.90;;;;;;20890522;28;20037;-78
2022/05/10 18:45:08;;;;;;;6.20;3.72;;;21.10;99.90;;;;;;20935890;28;20040;-79
2022/05/10 18:55:09;;;;;;;7.47;3.78;;;20.80;99.90;;;;;;20943244;28;20036;-80
2022/05/10 19:05:15;;;;;;;10.40;4.05;;;20.90;99.90;;;;;;20933030;28;20025;-79
2022/05/10 19:15:22;;;;;;;16.33;5.47;;;20.20;99.90;;;;;;20878416;28;20030;-79
2022/05/10 19:25:24;;;;;;;15.27;4.68;;;19.80;99.90;;;;;;20859742;28;20082;-78
2022/05/10 19:35:26;;;;;;;9.80;4.68;;;19.60;99.90;;;;;;20863790;28;20033;-78
2022/05/10 19:45:27;;;;;;;5.70;4.18;;;19.40;99.90;;;;;;20876064;28;20036;-78
2022/05/10 19:55:27;;;;;;;5.97;4.23;;;19.30;99.90;;;;;;20910807;28;20048;-80
2022/05/10 20:05:31;;;;;;;22.60;5.53;;;19.20;99.90;;;;;;20918063;28;20029;-79
2022/05/10 20:15:35;;;;;;;4.88;4.22;;;19.00;99.90;;;;;;20879369;28;20062;-79
2022/05/10 20:25:41;;;;;;;6.53;4.03;;;18.90;99.90;;;;;;20861425;28;20052;-79
2022/05/10 20:35:43;;;;;;;8.73;4.40;;;18.90;99.90;;;;;;20876452;28;20040;-79
2022/05/10 20:45:45;;;;;;;;;;;18.50;99.90;;;;;;20887696;28;20037;-79
2022/05/10 20:55:46;;;;;;;7.13;5.10;;;18.50;99.90;;;;;;20917507;28;19928;-78
2022/05/10 21:05:50;;;;;;;8.40;5.07;;;18.30;99.90;;;;;;20891535;28;20175;-78
2022/05/10 21:15:51;;;;;;;9.73;5.05;;;18.30;99.90;;;;;;20895690;28;20037;-77
2022/05/10 21:26:12;;;;;;;7.93;5.65;;;18.10;99.90;;;;;;20863524;28;20048;-78
2022/05/10 21:36:13;;;;;;;8.55;5.20;;;17.70;99.90;;;;;;20884403;28;20463;-79
2022/05/10 21:46:16;;;;;;;6.50;5.13;;;17.50;99.90;;;;;;20936071;28;20029;-79
2022/05/10 21:56:17;;;;;;;6.03;5.10;;;17.40;99.90;;;;;;20936130;28;20036;-79
2022/05/10 22:06:19;;;;;;;7.00;5.23;;;17.00;99.90;;;;;;20935835;28;20029;-80
2022/05/10 22:16:20;;;;;;;7.13;4.80;;;17.10;99.90;;;;;;20933081;28;20055;-78
2022/05/10 22:26:21;;;;;;;8.07;5.90;;;16.90;99.90;;;;;;20922972;28;20036;-78
2022/05/10 22:36:22;;;;;;;7.60;5.77;;;16.60;99.90;;;;;;20923530;28;20033;-78
2022/05/10 22:46:23;;;;;;;7.60;5.97;;;16.20;99.90;;;;;;20939587;28;20087;-78
2022/05/10 22:56:24;;;;;;;10.30;5.67;;;16.00;99.90;;;;;;20934983;28;20492;-78
2022/05/10 23:06:26;;;;;;;7.97;5.90;;;16.00;99.90;;;;;;20937155;28;20423;-78
2022/05/10 23:16:28;;;;;;;9.98;6.40;;;15.80;99.90;;;;;;20935896;28;20182;-78
2022/05/10 23:26:28;;;;;;;7.40;5.47;;;15.70;99.90;;;;;;20934564;28;20044;-78
2022/05/10 23:36:29;;;;;;;8.13;6.27;;;15.50;99.90;;;;;;20933284;28;20064;-79
2022/05/10 23:46:30;;;;;;;9.03;6.00;;;15.10;99.90;;;;;;20939780;28;20114;-78
2022/05/10 23:56:32;;;;;;;13.37;6.57;;;14.80;99.90;;;;;;20936092;28;20116;-79
